Time;durP1;ratioP1;P1;durP2;ratioP2;P2;SDS_P1;SDS_P2;PMS_P1;PMS_P2;Temp;Humidity;BMP_temperature;BMP_pressure;BME280_temperature;BME280_humidity;BME280_pressure;Samples;Min_cycle;Max_cycle;Signal;HPM_P1;HPM_P2
2022/03/20 00:01:08;;;;;;;7.35;4.75;;;6.40;35.60;;;;;;4995825;28;20062;-65
2022/03/20 00:03:33;;;;;;;6.43;4.95;;;6.50;35.60;;;;;;4995478;28;20019;-63
2022/03/20 00:05:59;;;;;;;17.48;9.60;;;6.50;35.50;;;;;;4996003;28;20022;-63
2022/03/20 00:08:25;;;;;;;13.27;8.23;;;6.40;36.70;;;;;;4995738;28;20022;-61
2022/03/20 00:10:53;;;;;;;11.35;7.30;;;6.30;35.80;;;;;;4995370;28;20109;-62
2022/03/20 00:13:22;;;;;;;10.43;6.32;;;6.30;35.70;;;;;;4995730;28;20030;-63
2022/03/20 00:15:50;;;;;;;8.32;5.47;;;6.30;35.60;;;;;;4995388;28;20050;-64
2022/03/20 00:18:20;;;;;;;8.50;5.53;;;6.30;35.00;;;;;;4995184;28;20072;-63
2022/03/20 00:21:00;;;;;;;66.53;33.15;;;6.30;35.10;;;;;;4995664;28;20136;-64
2022/03/20 00:23:27;;;;;;;57.88;28.10;;;6.10;38.30;;;;;;4995291;28;20023;-61
2022/03/20 00:25:55;;;;;;;46.78;24.90;;;5.80;38.90;;;;;;4995398;28;20491;-64
2022/03/20 00:28:23;;;;;;;58.45;28.00;;;5.80;38.80;;;;;;4995305;28;20041;-63
2022/03/20 00:30:49;;;;;;;65.25;32.58;;;5.70;38.50;;;;;;4995024;28;20034;-63
2022/03/20 00:33:15;;;;;;;60.80;30.92;;;5.50;40.80;;;;;;4995131;28;20022;-64
2022/03/20 00:35:41;;;;;;;80.45;42.35;;;5.30;39.90;;;;;;4995003;28;20029;-63
2022/03/20 00:38:08;;;;;;;61.35;32.75;;;5.00;41.50;;;;;;4994972;28;20102;-62
2022/03/20 00:40:34;;;;;;;70.90;38.45;;;5.00;40.50;;;;;;4995022;28;20022;-62
2022/03/20 00:43:00;;;;;;;62.63;32.17;;;4.90;42.10;;;;;;4994982;28;20027;-63
2022/03/20 00:45:28;;;;;;;82.35;39.75;;;4.90;41.80;;;;;;4994906;28;20085;-62
2022/03/20 00:47:54;;;;;;;59.35;32.20;;;4.80;42.80;;;;;;4994683;28;20381;-63
2022/03/20 00:50:21;;;;;;;103.55;52.30;;;4.70;42.80;;;;;;4994554;28;20061;-63
2022/03/20 00:52:47;;;;;;;101.55;51.10;;;4.60;44.20;;;;;;4994787;28;20022;-65
2022/03/20 00:55:12;;;;;;;77.30;41.42;;;4.40;44.00;;;;;;4994757;28;20029;-64
2022/03/20 00:57:38;;;;;;;75.75;39.75;;;4.30;42.70;;;;;;4994838;28;20023;-62
2022/03/20 01:00:05;;;;;;;76.30;37.22;;;4.40;43.30;;;;;;4994982;28;20058;-65
2022/03/20 01:02:41;;;;;;;68.05;34.00;;;4.30;43.70;;;;;;4994344;28;20037;-63
2022/03/20 01:05:08;;;;;;;63.95;32.60;;;4.20;43.80;;;;;;4994790;28;20392;-62
2022/03/20 01:07:34;;;;;;;59.42;29.25;;;4.00;44.80;;;;;;4994419;28;20033;-65
2022/03/20 01:10:01;;;;;;;50.13;25.75;;;3.90;45.20;;;;;;4994569;28;20057;-65
2022/03/20 01:12:28;;;;;;;42.13;22.02;;;3.60;44.40;;;;;;4994484;28;20018;-61
2022/03/20 01:14:54;;;;;;;53.17;26.95;;;3.50;45.30;;;;;;4994203;28;20050;-64
2022/03/20 01:17:20;;;;;;;38.50;20.23;;;3.30;46.00;;;;;;4994207;28;20042;-63
2022/03/20 01:19:46;;;;;;;44.80;22.83;;;3.30;45.30;;;;;;4994457;28;20080;-62
2022/03/20 01:22:11;;;;;;;41.22;21.67;;;3.10;46.40;;;;;;4994309;28;20049;-65
2022/03/20 01:24:37;;;;;;;45.70;23.73;;;3.10;45.70;;;;;;4994181;28;20094;-63
2022/03/20 01:27:03;;;;;;;41.40;21.17;;;3.20;45.90;;;;;;4993036;28;20026;-64
2022/03/20 01:29:28;;;;;;;41.45;21.23;;;3.20;45.90;;;;;;4994153;28;20033;-65
2022/03/20 01:31:55;;;;;;;46.60;23.98;;;3.10;46.00;;;;;;4993804;28;20069;-63
2022/03/20 01:34:21;;;;;;;36.03;18.42;;;3.00;46.10;;;;;;4994216;28;20022;-63
2022/03/20 01:36:47;;;;;;;37.75;19.38;;;3.00;45.20;;;;;;4994093;28;20077;-64
2022/03/20 01:39:15;;;;;;;34.60;16.80;;;3.00;46.30;;;;;;4993916;28;20473;-64
2022/03/20 01:41:41;;;;;;;33.15;17.38;;;2.80;46.30;;;;;;4994008;28;20033;-63
2022/03/20 01:44:07;;;;;;;38.05;19.08;;;2.70;46.60;;;;;;4994018;28;20022;-64
2022/03/20 01:46:33;;;;;;;49.05;24.17;;;2.70;46.70;;;;;;4993723;28;20086;-62
2022/03/20 01:48:59;;;;;;;56.13;25.90;;;2.70;46.70;;;;;;4993952;28;20026;-61
2022/03/20 01:54:13;;;;;;;;;;;2.50;48.10;;;;;;4994723;28;20033;-64
2022/03/20 01:56:47;;;;;;;47.67;22.10;;;2.40;47.60;;;;;;4994112;28;19975;-63
2022/03/20 01:59:16;;;;;;;42.65;20.00;;;2.20;48.30;;;;;;4993795;28;20022;-61
2022/03/20 02:01:42;;;;;;;38.13;19.13;;;2.10;47.80;;;;;;4994130;28;20033;-64
2022/03/20 02:04:11;;;;;;;42.85;19.35;;;2.00;48.00;;;;;;4998014;28;20018;-64
2022/03/20 02:06:37;;;;;;;46.97;20.77;;;2.10;47.80;;;;;;4997883;28;20420;-63
2022/03/20 02:09:04;;;;;;;46.67;22.30;;;2.30;46.80;;;;;;4997825;28;20050;-62
2022/03/20 02:11:30;;;;;;;58.47;27.08;;;2.30;47.40;;;;;;4997735;28;20117;-65
2022/03/20 02:13:56;;;;;;;60.47;25.60;;;2.20;48.10;;;;;;4997488;28;20098;-65
2022/03/20 02:16:22;;;;;;;62.70;29.42;;;2.10;47.90;;;;;;4997804;28;20400;-62
2022/03/20 02:18:48;;;;;;;57.22;27.02;;;2.30;48.10;;;;;;4997792;28;20045;-63
2022/03/20 02:21:16;;;;;;;58.83;27.45;;;2.20;48.00;;;;;;4997582;28;20037;-60
2022/03/20 02:23:44;;;;;;;56.30;25.48;;;2.10;48.70;;;;;;4997839;28;20031;-62
2022/03/20 02:26:10;;;;;;;52.30;25.33;;;2.00;48.00;;;;;;4997558;28;20054;-61
2022/03/20 02:28:36;;;;;;;60.13;28.30;;;2.00;48.70;;;;;;4997375;28;20432;-64
2022/03/20 02:31:03;;;;;;;52.08;24.02;;;2.00;48.50;;;;;;4997207;28;20519;-62
2022/03/20 02:33:29;;;;;;;49.20;22.30;;;1.90;48.80;;;;;;4997416;28;20421;-63
2022/03/20 02:35:55;;;;;;;35.03;17.77;;;1.90;48.80;;;;;;4997361;28;20027;-61
2022/03/20 02:38:21;;;;;;;36.30;17.70;;;1.70;49.10;;;;;;4997220;28;20093;-62
2022/03/20 02:40:54;;;;;;;47.97;22.67;;;1.70;48.70;;;;;;4997249;28;20025;-63
2022/03/20 02:43:20;;;;;;;50.40;22.35;;;1.80;49.20;;;;;;4996958;28;20396;-61
2022/03/20 02:45:45;;;;;;;41.75;20.30;;;1.80;49.00;;;;;;4997247;28;20025;-64
2022/03/20 02:48:12;;;;;;;45.42;23.13;;;1.80;48.60;;;;;;4997131;28;20097;-63
2022/03/20 02:50:38;;;;;;;40.88;18.85;;;1.80;48.30;;;;;;4997245;28;20169;-64
2022/03/20 02:53:11;;;;;;;37.53;17.83;;;1.80;48.00;;;;;;4997070;28;20105;-64
2022/03/20 02:55:39;;;;;;;29.10;13.93;;;1.80;48.50;;;;;;4997034;28;20496;-64
2022/03/20 02:58:07;;;;;;;39.85;17.38;;;1.80;47.90;;;;;;4996681;28;20256;-65
2022/03/20 03:00:34;;;;;;;35.67;16.55;;;1.80;47.90;;;;;;4997011;28;20029;-62
2022/03/20 03:03:02;;;;;;;25.15;12.38;;;1.80;48.20;;;;;;4996903;28;20033;-65
2022/03/20 03:05:29;;;;;;;29.65;15.05;;;1.70;47.30;;;;;;4996758;28;20476;-64
2022/03/20 03:11:01;;;;;;;25.35;13.77;;;1.70;47.40;;;;;;4996783;28;20106;-61
2022/03/20 03:13:41;;;;;;;29.15;14.00;;;1.80;47.20;;;;;;4996275;28;20065;-62
2022/03/20 03:16:15;;;;;;;28.98;14.45;;;1.80;47.40;;;;;;4996917;28;20097;-61
2022/03/20 03:18:41;;;;;;;;;;;1.70;47.40;;;;;;4997085;28;20026;-64
2022/03/20 03:21:11;;;;;;;32.33;14.68;;;1.80;47.70;;;;;;4996548;28;20381;-64
2022/03/20 03:23:37;;;;;;;28.55;14.85;;;1.80;47.20;;;;;;4996625;28;20457;-64
2022/03/20 03:26:06;;;;;;;31.10;15.32;;;1.80;47.50;;;;;;4996504;28;20034;-64
2022/03/20 03:28:36;;;;;;;26.92;13.18;;;1.80;47.20;;;;;;4996212;28;20030;-63
2022/03/20 03:31:07;;;;;;;26.70;13.30;;;1.90;47.60;;;;;;4996409;28;20041;-63
2022/03/20 03:33:33;;;;;;;24.05;12.93;;;1.90;47.30;;;;;;4996381;28;20018;-63
2022/03/20 03:35:59;;;;;;;24.27;12.07;;;1.70;47.60;;;;;;4996201;28;20018;-62
2022/03/20 03:38:34;;;;;;;30.45;14.25;;;1.70;47.00;;;;;;4996225;28;20026;-65
2022/03/20 03:41:00;;;;;;;39.75;18.25;;;1.80;46.70;;;;;;4995981;28;20065;-62
2022/03/20 03:43:26;;;;;;;31.63;16.35;;;1.70;47.70;;;;;;4996072;28;20033;-65
2022/03/20 03:45:56;;;;;;;37.00;19.73;;;1.60;47.10;;;;;;4996101;28;20026;-61
2022/03/20 03:48:22;;;;;;;31.90;15.43;;;1.60;47.20;;;;;;4996127;28;20019;-65
2022/03/20 03:50:50;;;;;;;34.45;15.88;;;1.50;47.80;;;;;;4995794;28;20023;-64
2022/03/20 03:53:16;;;;;;;25.98;12.65;;;1.40;47.60;;;;;;4996091;28;20098;-62
2022/03/20 03:55:43;;;;;;;26.02;12.27;;;1.50;45.70;;;;;;4995689;28;20097;-64
2022/03/20 03:58:09;;;;;;;30.75;13.75;;;1.70;45.60;;;;;;4995767;28;20105;-63
2022/03/20 04:00:35;;;;;;;26.75;14.50;;;1.70;46.60;;;;;;4995849;28;20370;-65
2022/03/20 04:03:01;;;;;;;24.10;12.85;;;1.60;47.60;;;;;;4995736;28;20078;-61
2022/03/20 04:05:28;;;;;;;30.23;16.70;;;1.60;46.90;;;;;;4995627;28;20018;-62
2022/03/20 04:07:55;;;;;;;34.08;19.13;;;1.60;47.70;;;;;;4995686;28;20424;-62
2022/03/20 04:10:22;;;;;;;32.50;16.75;;;1.40;47.10;;;;;;4995345;28;20033;-65
2022/03/20 04:12:48;;;;;;;33.90;17.63;;;1.40;47.40;;;;;;4996039;28;20037;-64
2022/03/20 04:15:16;;;;;;;34.00;17.85;;;1.40;47.40;;;;;;4995312;28;20137;-62
2022/03/20 04:17:42;;;;;;;50.67;25.30;;;1.40;47.70;;;;;;4995497;28;20057;-59
2022/03/20 04:20:10;;;;;;;45.80;25.75;;;1.30;47.70;;;;;;4995406;28;20022;-64
2022/03/20 04:22:37;;;;;;;48.58;28.75;;;1.20;47.30;;;;;;4995401;28;20045;-63
2022/03/20 04:25:04;;;;;;;69.03;38.83;;;1.20;48.00;;;;;;4994500;28;20015;-63
2022/03/20 04:27:31;;;;;;;62.75;37.72;;;1.20;47.50;;;;;;4995220;28;20034;-61
2022/03/20 04:29:56;;;;;;;52.30;29.98;;;1.20;48.50;;;;;;4995169;28;20157;-63
2022/03/20 04:32:23;;;;;;;73.25;36.08;;;1.20;47.80;;;;;;4995312;28;20098;-64
2022/03/20 04:34:49;;;;;;;121.85;52.20;;;1.20;49.20;;;;;;4995244;28;20077;-61
2022/03/20 04:37:16;;;;;;;66.20;32.40;;;1.00;48.70;;;;;;4995076;28;20028;-64
2022/03/20 04:39:43;;;;;;;43.30;21.35;;;1.10;48.30;;;;;;4994885;28;20165;-61
2022/03/20 04:42:09;;;;;;;41.80;21.13;;;1.00;48.30;;;;;;4995084;28;20425;-61
2022/03/20 04:44:39;;;;;;;58.13;25.75;;;1.00;48.70;;;;;;4994901;28;20116;-61
2022/03/20 04:47:06;;;;;;;48.80;22.60;;;1.00;48.60;;;;;;4994930;28;20026;-65
2022/03/20 05:00:29;;;;;;;85.13;35.05;;;0.90;49.00;;;;;;4994830;28;20025;-62
2022/03/20 05:02:55;;;;;;;83.22;36.22;;;1.00;48.60;;;;;;4994621;28;20022;-64
2022/03/20 05:05:20;;;;;;;72.95;33.92;;;0.90;49.10;;;;;;4994567;28;20022;-62
2022/03/20 05:07:46;;;;;;;89.53;38.33;;;0.90;49.00;;;;;;4994500;28;20034;-65
2022/03/20 05:15:40;;;;;;;88.05;39.92;;;0.90;49.30;;;;;;4994343;28;20064;-63
2022/03/20 05:18:07;;;;;;;95.55;44.67;;;0.90;49.20;;;;;;4994326;28;20030;-62
2022/03/20 05:20:34;;;;;;;123.10;57.35;;;1.00;49.30;;;;;;4994483;28;20033;-62
2022/03/20 05:23:00;;;;;;;100.35;49.80;;;1.10;49.00;;;;;;4994218;28;20528;-65
2022/03/20 05:25:30;;;;;;;103.45;51.13;;;1.00;49.40;;;;;;4994233;28;20110;-62
2022/03/20 05:27:57;;;;;;;103.65;49.83;;;1.00;48.80;;;;;;4994292;28;20437;-61
2022/03/20 05:30:23;;;;;;;102.53;49.65;;;1.10;48.40;;;;;;4994168;28;20113;-62
2022/03/20 05:32:50;;;;;;;87.35;41.92;;;1.10;48.80;;;;;;4994066;28;20022;-64
2022/03/20 05:35:16;;;;;;;82.43;40.78;;;1.20;48.80;;;;;;4994097;28;20061;-62
2022/03/20 05:37:43;;;;;;;108.93;51.83;;;1.10;49.50;;;;;;4993894;28;20026;-61
2022/03/20 05:40:09;;;;;;;115.72;61.50;;;1.10;48.80;;;;;;4994040;28;20025;-63
2022/03/20 05:42:38;;;;;;;75.47;40.63;;;1.20;49.10;;;;;;4994095;28;20029;-64
2022/03/20 05:45:04;;;;;;;57.03;30.10;;;1.20;48.80;;;;;;4994054;28;20097;-63
2022/03/20 05:47:31;;;;;;;65.25;32.10;;;1.20;48.60;;;;;;4993844;28;20473;-62
2022/03/20 05:50:01;;;;;;;70.15;35.55;;;1.30;48.10;;;;;;4994029;28;20465;-62
2022/03/20 05:52:31;;;;;;;88.28;42.90;;;1.30;48.10;;;;;;4993800;28;20091;-63
2022/03/20 05:54:58;;;;;;;248.93;102.97;;;1.50;47.90;;;;;;4993881;28;20034;-64
2022/03/20 06:00:16;;;;;;;246.00;91.35;;;1.40;49.00;;;;;;4993839;28;20080;-60
2022/03/20 06:02:43;;;;;;;203.90;76.97;;;1.40;48.30;;;;;;4994018;28;20113;-61
2022/03/20 06:05:09;;;;;;;154.25;58.85;;;1.50;48.00;;;;;;4993831;28;20369;-64
2022/03/20 06:07:46;;;;;;;103.70;40.75;;;1.50;47.70;;;;;;4993544;28;20030;-64
2022/03/20 06:10:21;;;;;;;198.05;73.70;;;1.60;46.30;;;;;;4993720;28;20424;-62
2022/03/20 06:12:47;;;;;;;160.60;57.88;;;1.70;47.00;;;;;;4993725;28;20018;-62
2022/03/20 06:15:13;;;;;;;160.27;62.00;;;1.80;46.80;;;;;;4993910;28;20054;-61
2022/03/20 06:17:41;;;;;;;202.20;83.38;;;1.90;47.10;;;;;;4993706;28;20029;-63
2022/03/20 06:20:09;;;;;;;211.27;81.00;;;2.20;45.60;;;;;;4993450;28;20018;-63
2022/03/20 06:22:35;;;;;;;239.07;102.43;;;2.60;46.10;;;;;;4993783;28;20034;-62
2022/03/20 06:25:03;;;;;;;201.85;90.68;;;5.90;42.20;;;;;;4993664;28;20086;-65
2022/03/20 06:27:40;;;;;;;180.43;84.65;;;9.10;38.30;;;;;;4993509;28;20030;-64
2022/03/20 06:30:06;;;;;;;141.38;64.95;;;11.60;34.80;;;;;;4993648;28;20022;-62
2022/03/20 06:32:31;;;;;;;89.60;48.35;;;14.60;30.50;;;;;;4993616;28;20030;-62
2022/03/20 06:34:57;;;;;;;86.68;45.42;;;16.00;27.00;;;;;;4993275;28;20508;-63
2022/03/20 06:37:23;;;;;;;76.38;41.40;;;17.30;27.10;;;;;;4993523;28;20018;-62
2022/03/20 06:39:49;;;;;;;49.63;30.75;;;17.40;26.10;;;;;;4993546;28;20030;-64
2022/03/20 06:42:14;;;;;;;22.17;13.93;;;18.20;25.10;;;;;;4993423;28;20027;-61
2022/03/20 06:44:40;;;;;;;14.05;9.65;;;19.00;23.70;;;;;;4993475;28;20034;-62
2022/03/20 06:47:07;;;;;;;19.73;12.57;;;19.70;24.20;;;;;;4993454;28;20029;-62
2022/03/20 06:49:34;;;;;;;34.60;25.25;;;20.90;24.10;;;;;;4996543;28;20023;-63
2022/03/20 06:52:00;;;;;;;19.45;15.05;;;21.10;24.40;;;;;;4997005;28;20096;-65
2022/03/20 06:54:25;;;;;;;11.05;9.02;;;21.50;23.00;;;;;;4997154;28;20026;-63
2022/03/20 06:56:53;;;;;;;9.10;6.72;;;21.10;22.60;;;;;;4996915;28;20019;-63
2022/03/20 06:59:19;;;;;;;8.38;6.30;;;21.60;23.10;;;;;;4996959;28;20022;-62
2022/03/20 07:01:44;;;;;;;6.38;4.85;;;22.20;23.10;;;;;;4997051;28;20031;-62
2022/03/20 07:04:10;;;;;;;7.15;5.13;;;22.50;22.10;;;;;;4996729;28;20034;-64
2022/03/20 07:06:36;;;;;;;7.10;5.55;;;22.80;21.90;;;;;;4996747;28;20018;-64
2022/03/20 07:09:02;;;;;;;8.60;6.65;;;23.00;21.60;;;;;;4996787;28;20019;-61
2022/03/20 07:11:34;;;;;;;8.32;6.40;;;22.60;21.60;;;;;;4996746;28;20456;-64
2022/03/20 07:14:01;;;;;;;8.93;6.10;;;23.20;22.30;;;;;;4996394;28;20192;-66
2022/03/20 07:16:30;;;;;;;11.50;8.68;;;23.80;21.90;;;;;;4996665;28;20031;-65
2022/03/20 07:18:56;;;;;;;12.18;8.25;;;22.30;20.90;;;;;;4996720;28;20397;-65
2022/03/20 07:21:22;;;;;;;10.48;7.90;;;21.80;21.50;;;;;;4996442;28;20027;-64
2022/03/20 07:23:48;;;;;;;11.10;7.70;;;22.30;22.30;;;;;;4996767;28;20088;-61
2022/03/20 07:31:42;;;;;;;9.05;6.57;;;23.70;21.80;;;;;;4996304;28;20034;-65
2022/03/20 07:34:08;;;;;;;7.85;6.30;;;24.60;21.40;;;;;;4996353;28;20026;-64
2022/03/20 07:36:34;;;;;;;10.02;7.47;;;25.30;21.40;;;;;;4996267;28;20084;-65
2022/03/20 07:39:00;;;;;;;10.00;7.25;;;25.20;20.20;;;;;;4996235;28;20105;-65
2022/03/20 07:41:26;;;;;;;7.82;5.93;;;24.80;20.90;;;;;;4996159;28;20615;-62
2022/03/20 07:43:52;;;;;;;8.07;6.53;;;24.90;20.80;;;;;;4996249;28;20022;-62
2022/03/20 07:46:17;;;;;;;8.55;6.55;;;24.40;20.80;;;;;;4996113;28;20022;-60
2022/03/20 07:48:43;;;;;;;5.70;4.97;;;24.30;20.60;;;;;;4996109;28;20029;-61
2022/03/20 07:51:09;;;;;;;6.25;5.18;;;25.00;20.90;;;;;;4996102;28;20058;-60
2022/03/20 07:53:35;;;;;;;7.32;5.88;;;25.20;21.70;;;;;;4995997;28;20025;-63
2022/03/20 07:56:01;;;;;;;11.82;8.50;;;24.70;20.10;;;;;;4995778;28;20105;-63
2022/03/20 07:58:27;;;;;;;9.95;6.80;;;23.50;20.90;;;;;;4995938;28;20022;-64
2022/03/20 08:00:52;;;;;;;7.90;6.13;;;23.40;20.50;;;;;;4994794;28;20014;-64
2022/03/20 08:03:18;;;;;;;5.70;4.80;;;23.30;21.40;;;;;;4995636;28;20022;-64
2022/03/20 08:05:44;;;;;;;6.32;4.40;;;23.80;21.30;;;;;;4995923;28;20029;-61
2022/03/20 08:08:14;;;;;;;7.47;5.85;;;24.20;21.10;;;;;;4995711;28;20030;-64
2022/03/20 08:10:41;;;;;;;12.48;8.25;;;24.60;19.70;;;;;;4995439;28;20499;-64
2022/03/20 08:13:09;;;;;;;8.35;6.22;;;22.40;19.80;;;;;;4995570;28;20496;-60
2022/03/20 08:15:35;;;;;;;8.90;6.05;;;20.70;21.20;;;;;;4995516;28;20512;-63
2022/03/20 08:18:01;;;;;;;8.68;5.90;;;20.90;22.10;;;;;;4995279;28;20060;-65
2022/03/20 08:20:27;;;;;;;7.03;5.18;;;22.30;20.90;;;;;;4995441;28;20056;-61
2022/03/20 08:22:53;;;;;;;7.60;6.13;;;23.60;21.20;;;;;;4995510;28;20465;-61
2022/03/20 08:25:20;;;;;;;5.55;4.85;;;23.80;20.60;;;;;;4995651;28;20054;-63
2022/03/20 08:27:47;;;;;;;4.95;3.90;;;24.20;20.50;;;;;;4995302;28;20396;-61
2022/03/20 08:30:15;;;;;;;5.20;4.35;;;24.50;20.50;;;;;;4995213;28;20428;-61
2022/03/20 08:32:42;;;;;;;4.80;4.40;;;25.10;20.30;;;;;;4995014;28;20084;-65
2022/03/20 08:35:08;;;;;;;6.43;4.95;;;25.50;20.40;;;;;;4995222;28;20034;-64
2022/03/20 08:37:35;;;;;;;6.10;4.45;;;25.00;19.70;;;;;;4995129;28;20034;-64
2022/03/20 08:40:03;;;;;;;6.45;5.25;;;24.30;19.80;;;;;;4993887;28;20444;-64
2022/03/20 08:42:29;;;;;;;8.20;5.32;;;23.10;20.80;;;;;;4995031;28;20458;-62
2022/03/20 08:44:55;;;;;;;11.43;8.55;;;23.00;20.30;;;;;;4995022;28;20022;-63
2022/03/20 08:47:20;;;;;;;7.28;6.05;;;22.00;20.00;;;;;;4994785;28;20026;-61
2022/03/20 08:49:46;;;;;;;13.82;9.98;;;21.90;20.30;;;;;;4994801;28;20025;-64
2022/03/20 08:52:12;;;;;;;8.85;6.97;;;20.90;20.30;;;;;;4994821;28;20037;-63
2022/03/20 08:54:38;;;;;;;10.55;6.53;;;20.90;20.30;;;;;;4995119;28;20134;-61
2022/03/20 08:57:06;;;;;;;15.65;10.90;;;20.90;21.40;;;;;;4994588;28;20030;-60
2022/03/20 08:59:32;;;;;;;13.05;10.10;;;19.90;20.30;;;;;;4994932;28;20461;-61
2022/03/20 09:01:58;;;;;;;10.00;7.55;;;19.60;22.50;;;;;;4994559;28;20540;-63
2022/03/20 09:04:23;;;;;;;8.10;6.72;;;19.20;21.00;;;;;;4994603;28;20097;-61
2022/03/20 09:06:50;;;;;;;5.88;4.90;;;18.80;21.10;;;;;;4994563;28;20114;-64
2022/03/20 09:09:16;;;;;;;5.65;4.57;;;19.10;21.20;;;;;;4994589;28;20026;-63
2022/03/20 09:11:44;;;;;;;5.43;4.68;;;18.60;21.20;;;;;;4994146;28;20022;-63
2022/03/20 09:14:10;;;;;;;7.13;5.10;;;17.20;22.00;;;;;;4994369;28;20134;-61
2022/03/20 09:19:20;;;;;;;4.07;3.35;;;17.10;23.50;;;;;;4994408;28;20404;-63
2022/03/20 09:21:46;;;;;;;6.75;4.18;;;17.40;22.40;;;;;;4994480;28;20026;-63
2022/03/20 09:24:11;;;;;;;8.10;5.25;;;17.40;21.90;;;;;;4994413;28;20025;-63
2022/03/20 09:26:38;;;;;;;8.95;5.32;;;16.70;22.60;;;;;;4994272;28;20077;-64
2022/03/20 09:29:04;;;;;;;8.48;5.75;;;16.70;22.40;;;;;;4994131;28;20018;-63
2022/03/20 09:31:34;;;;;;;8.27;4.75;;;16.60;22.60;;;;;;4994179;28;20480;-61
2022/03/20 09:34:01;;;;;;;4.93;4.38;;;16.90;23.80;;;;;;4994142;28;20022;-61
2022/03/20 09:36:28;;;;;;;5.38;3.80;;;17.30;24.30;;;;;;4994255;28;20029;-63
2022/03/20 09:38:53;;;;;;;3.83;3.35;;;17.50;24.60;;;;;;4994128;28;20464;-62
2022/03/20 09:41:28;;;;;;;5.25;3.40;;;17.70;22.70;;;;;;4993985;28;20116;-62
2022/03/20 09:43:54;;;;;;;5.68;4.72;;;17.60;22.20;;;;;;4994308;28;20034;-64
2022/03/20 09:46:21;;;;;;;5.82;5.07;;;16.40;22.00;;;;;;4993816;28;20382;-65
2022/03/20 09:48:48;;;;;;;9.02;5.30;;;16.10;23.50;;;;;;4993987;28;20041;-61
2022/03/20 09:51:13;;;;;;;5.38;3.75;;;16.30;24.10;;;;;;4993929;28;20481;-63
2022/03/20 09:53:39;;;;;;;4.75;4.25;;;16.90;23.20;;;;;;4993957;28;20045;-63
2022/03/20 09:56:10;;;;;;;4.40;3.92;;;16.70;23.50;;;;;;4993802;28;20072;-62
2022/03/20 09:58:35;;;;;;;7.38;4.80;;;16.80;23.90;;;;;;4993876;28;20027;-64
2022/03/20 10:01:02;;;;;;;6.60;4.57;;;16.10;24.00;;;;;;4993900;28;20026;-62
2022/03/20 10:03:28;;;;;;;5.75;4.97;;;16.30;23.70;;;;;;4993789;28;20457;-63
2022/03/20 10:06:16;;;;;;;6.50;4.32;;;16.30;24.30;;;;;;4993898;28;20381;-63
2022/03/20 10:08:58;;;;;;;5.43;4.20;;;16.70;23.00;;;;;;4993975;28;20089;-62
2022/03/20 10:11:25;;;;;;;5.35;4.32;;;16.50;24.00;;;;;;4993694;28;20034;-63
2022/03/20 10:14:10;;;;;;;7.63;4.47;;;16.80;24.30;;;;;;4993504;28;20389;-62
2022/03/20 10:16:38;;;;;;;4.40;3.65;;;17.40;22.90;;;;;;4993761;28;20443;-62
2022/03/20 10:19:23;;;;;;;4.18;3.50;;;17.70;25.20;;;;;;4993679;28;20072;-64
2022/03/20 10:22:02;;;;;;;5.45;3.75;;;18.40;23.70;;;;;;4993598;28;20370;-61
2022/03/20 10:24:30;;;;;;;8.30;4.95;;;17.90;22.50;;;;;;4996927;28;20038;-63
2022/03/20 10:26:58;;;;;;;5.95;4.75;;;17.40;22.80;;;;;;4997876;28;20026;-62
2022/03/20 10:29:24;;;;;;;5.10;4.30;;;17.50;24.30;;;;;;4997554;28;20105;-62
2022/03/20 10:31:52;;;;;;;4.90;4.32;;;17.70;26.40;;;;;;4997336;28;20161;-64
2022/03/20 10:34:19;;;;;;;5.60;4.43;;;17.90;23.20;;;;;;4997543;28;20018;-62
2022/03/20 10:36:46;;;;;;;5.95;4.78;;;17.80;23.40;;;;;;4997544;28;20030;-62
2022/03/20 10:39:19;;;;;;;5.68;4.78;;;17.60;25.20;;;;;;4997281;28;20024;-61
2022/03/20 10:41:47;;;;;;;5.28;4.72;;;17.70;22.90;;;;;;4997240;28;20027;-62
2022/03/20 10:44:17;;;;;;;6.38;4.97;;;17.70;24.10;;;;;;4997251;28;20499;-63
2022/03/20 10:46:54;;;;;;;6.85;5.07;;;17.20;22.10;;;;;;4997243;28;20069;-61
2022/03/20 10:49:21;;;;;;;6.82;4.78;;;16.50;24.40;;;;;;4997192;28;20105;-60
2022/03/20 10:52:04;;;;;;;4.40;3.80;;;16.60;24.50;;;;;;4996969;28;20042;-63
2022/03/20 10:54:55;;;;;;;5.75;4.10;;;16.80;24.50;;;;;;4997105;28;20019;-64
2022/03/20 10:57:31;;;;;;;4.18;3.70;;;17.00;25.80;;;;;;4996897;28;20030;-61
2022/03/20 11:00:00;;;;;;;5.25;3.92;;;17.80;25.50;;;;;;4996884;28;20050;-63
2022/03/20 11:02:26;;;;;;;10.13;5.57;;;18.30;23.20;;;;;;4996866;28;20030;-60
2022/03/20 11:04:52;;;;;;;5.63;4.72;;;18.20;22.80;;;;;;4996965;28;20033;-64
2022/03/20 11:07:19;;;;;;;7.95;6.07;;;18.10;23.60;;;;;;4996963;28;20077;-64
2022/03/20 11:09:54;;;;;;;7.75;6.13;;;17.70;23.10;;;;;;4996711;28;20023;-62
2022/03/20 11:12:35;;;;;;;10.20;7.68;;;17.50;25.40;;;;;;4996526;28;20429;-60
2022/03/20 11:15:06;;;;;;;6.53;5.82;;;17.40;24.10;;;;;;4996645;28;20051;-64
2022/03/20 11:17:52;;;;;;;9.02;6.30;;;17.60;25.70;;;;;;4996719;28;20018;-61
2022/03/20 11:20:22;;;;;;;7.57;5.82;;;17.70;22.80;;;;;;4996535;28;20451;-64
2022/03/20 11:22:50;;;;;;;7.85;6.25;;;17.80;24.30;;;;;;4996645;28;20525;-61
2022/03/20 11:25:21;;;;;;;7.65;5.47;;;18.00;23.50;;;;;;4996420;28;20026;-60
2022/03/20 11:28:01;;;;;;;6.80;5.68;;;17.20;23.10;;;;;;4996483;28;20038;-60
2022/03/20 11:30:31;;;;;;;8.98;7.28;;;16.80;23.70;;;;;;4996297;28;20093;-62
2022/03/20 11:33:00;;;;;;;7.22;5.50;;;16.70;25.40;;;;;;4996385;28;20026;-62
2022/03/20 11:35:30;;;;;;;8.10;5.72;;;17.20;25.00;;;;;;4996245;28;20030;-62
2022/03/20 11:37:59;;;;;;;5.45;4.55;;;17.40;23.40;;;;;;4996325;28;20030;-61
2022/03/20 11:40:26;;;;;;;6.22;5.22;;;17.20;24.80;;;;;;4996242;28;20065;-61
2022/03/20 11:43:14;;;;;;;7.07;4.70;;;17.30;25.30;;;;;;4996289;28;20085;-63
2022/03/20 11:45:39;;;;;;;8.20;4.90;;;18.00;23.60;;;;;;4998617;28;20040;-61
2022/03/20 11:48:16;;;;;;;6.65;5.55;;;18.30;24.40;;;;;;4996295;28;20014;-63
2022/03/20 11:50:44;;;;;;;6.20;4.43;;;18.40;24.70;;;;;;4995948;28;20416;-61
2022/03/20 11:53:10;;;;;;;6.55;4.28;;;18.50;22.70;;;;;;4996039;28;20026;-62
2022/03/20 11:55:47;;;;;;;7.03;4.75;;;18.50;23.40;;;;;;4995861;28;20539;-60
2022/03/20 11:58:16;;;;;;;7.13;5.65;;;18.40;22.50;;;;;;4995765;28;20096;-61
2022/03/20 12:00:56;;;;;;;5.18;4.68;;;17.90;22.90;;;;;;4995884;28;20057;-60
2022/03/20 12:03:39;;;;;;;5.32;4.70;;;18.20;22.60;;;;;;4995777;28;20085;-61
2022/03/20 12:06:30;;;;;;;5.03;4.43;;;18.70;23.60;;;;;;4995825;28;20023;-61
2022/03/20 12:09:10;;;;;;;5.65;4.55;;;19.30;23.80;;;;;;4995534;28;20545;-62
2022/03/20 12:12:07;;;;;;;6.00;4.78;;;19.30;25.00;;;;;;4995819;28;20073;-63
2022/03/20 12:14:56;;;;;;;6.20;5.28;;;19.10;25.70;;;;;;4995504;28;20067;-63
2022/03/20 12:17:22;;;;;;;10.32;6.55;;;18.90;22.90;;;;;;4995663;28;20366;-63
2022/03/20 12:19:55;;;;;;;7.40;5.20;;;19.20;23.40;;;;;;4995552;28;20022;-64
2022/03/20 12:22:21;;;;;;;5.78;3.70;;;19.50;24.20;;;;;;4995345;28;20030;-64
2022/03/20 12:24:57;;;;;;;6.80;4.00;;;19.10;23.00;;;;;;4995195;28;20073;-62
2022/03/20 12:27:23;;;;;;;4.25;3.85;;;19.30;24.60;;;;;;4995432;28;20027;-62
2022/03/20 12:29:52;;;;;;;6.07;4.47;;;19.80;23.40;;;;;;4995227;28;20398;-63
2022/03/20 12:32:18;;;;;;;7.60;5.57;;;19.60;24.20;;;;;;4995166;28;20485;-62
2022/03/20 12:34:56;;;;;;;4.85;4.00;;;19.70;22.30;;;;;;4995267;28;20025;-63
2022/03/20 12:40:04;;;;;;;6.05;4.15;;;20.40;23.00;;;;;;4995141;28;20033;-64
2022/03/20 12:42:32;;;;;;;4.70;4.22;;;20.50;23.40;;;;;;4995082;28;20057;-62
2022/03/20 12:44:58;;;;;;;8.52;5.85;;;20.20;23.00;;;;;;4994928;28;20027;-61
2022/03/20 12:47:28;;;;;;;8.95;6.57;;;20.10;23.90;;;;;;4994564;28;20037;-60
2022/03/20 12:49:56;;;;;;;5.43;4.18;;;19.50;21.80;;;;;;4995146;28;20097;-60
2022/03/20 12:52:24;;;;;;;4.20;3.80;;;19.30;22.70;;;;;;4994735;28;20048;-62
2022/03/20 12:54:58;;;;;;;2.88;2.60;;;19.70;23.50;;;;;;4994808;28;20022;-62
2022/03/20 12:57:43;;;;;;;3.75;2.90;;;20.20;25.10;;;;;;4994742;28;20485;-62
2022/03/20 13:00:33;;;;;;;3.70;3.33;;;20.30;23.20;;;;;;4994697;28;20115;-61
2022/03/20 13:03:12;;;;;;;4.05;3.65;;;19.80;22.80;;;;;;4994839;28;20035;-63
2022/03/20 13:05:45;;;;;;;5.18;4.22;;;20.00;23.30;;;;;;4994648;28;20038;-62
2022/03/20 13:08:17;;;;;;;4.82;4.07;;;20.20;22.30;;;;;;4994475;28;20507;-61
2022/03/20 13:10:44;;;;;;;3.80;3.40;;;19.70;23.00;;;;;;4994449;28;20049;-60
2022/03/20 13:13:10;;;;;;;3.00;2.65;;;20.10;23.20;;;;;;4994560;28;20072;-62
2022/03/20 13:15:40;;;;;;;2.95;2.60;;;20.30;22.40;;;;;;4993134;28;20137;-63
2022/03/20 13:18:09;;;;;;;3.75;2.90;;;20.50;22.80;;;;;;4994412;28;20085;-62
2022/03/20 13:20:37;;;;;;;3.63;3.28;;;20.70;24.30;;;;;;4994386;28;20093;-62
2022/03/20 13:23:15;;;;;;;3.55;3.25;;;20.70;22.90;;;;;;4994215;28;20061;-61